sensor_id;sensor_type;location;lat;lon;timestamp;temperature;humidity
13796;SHT30;40911;51.552;9.874;2022-07-10T00:03:54;15.04;71.58
13796;SHT30;40911;51.552;9.874;2022-07-10T00:06:16;15.13;71.61
13796;SHT30;40911;51.552;9.874;2022-07-10T00:08:37;15.02;71.94
13796;SHT30;40911;51.552;9.874;2022-07-10T00:10:59;14.95;72.00
13796;SHT30;40911;51.552;9.874;2022-07-10T00:13:21;15.12;71.93
13796;SHT30;40911;51.552;9.874;2022-07-10T00:15:42;14.94;72.19
13796;SHT30;40911;51.552;9.874;2022-07-10T00:18:04;14.83;72.47
13796;SHT30;40911;51.552;9.874;2022-07-10T00:20:27;14.75;72.57
13796;SHT30;40911;51.552;9.874;2022-07-10T00:22:48;14.88;72.46
13796;SHT30;40911;51.552;9.874;2022-07-10T00:25:12;14.91;72.62
13796;SHT30;40911;51.552;9.874;2022-07-10T00:27:33;15.02;72.51
13796;SHT30;40911;51.552;9.874;2022-07-10T00:29:55;15.04;72.48
13796;SHT30;40911;51.552;9.874;2022-07-10T00:32:16;14.96;72.52
13796;SHT30;40911;51.552;9.874;2022-07-10T00:34:38;14.91;72.77
13796;SHT30;40911;51.552;9.874;2022-07-10T00:37:01;14.88;72.50
13796;SHT30;40911;51.552;9.874;2022-07-10T00:39:23;14.84;72.70
13796;SHT30;40911;51.552;9.874;2022-07-10T00:41:45;14.88;72.72
13796;SHT30;40911;51.552;9.874;2022-07-10T00:44:06;14.91;72.73
13796;SHT30;40911;51.552;9.874;2022-07-10T00:46:29;15.05;72.36
13796;SHT30;40911;51.552;9.874;2022-07-10T00:48:51;14.89;72.15
13796;SHT30;40911;51.552;9.874;2022-07-10T00:51:12;14.88;72.40
13796;SHT30;40911;51.552;9.874;2022-07-10T00:53:36;14.98;72.00
13796;SHT30;40911;51.552;9.874;2022-07-10T00:55:57;14.96;72.00
13796;SHT30;40911;51.552;9.874;2022-07-10T00:58:19;14.95;71.90
13796;SHT30;40911;51.552;9.874;2022-07-10T01:00:41;14.95;71.96
13796;SHT30;40911;51.552;9.874;2022-07-10T01:03:03;14.87;72.09
13796;SHT30;40911;51.552;9.874;2022-07-10T01:05:25;14.87;72.10
13796;SHT30;40911;51.552;9.874;2022-07-10T01:07:47;14.73;71.99
13796;SHT30;40911;51.552;9.874;2022-07-10T01:10:10;14.59;72.73
13796;SHT30;40911;51.552;9.874;2022-07-10T01:12:32;14.56;72.33
13796;SHT30;40911;51.552;9.874;2022-07-10T01:14:54;14.65;72.40
13796;SHT30;40911;51.552;9.874;2022-07-10T01:17:16;14.54;72.81
13796;SHT30;40911;51.552;9.874;2022-07-10T01:19:39;14.29;73.22
13796;SHT30;40911;51.552;9.874;2022-07-10T01:22:03;14.37;73.34
13796;SHT30;40911;51.552;9.874;2022-07-10T01:24:24;14.13;73.73
13796;SHT30;40911;51.552;9.874;2022-07-10T01:26:46;14.19;73.65
13796;SHT30;40911;51.552;9.874;2022-07-10T01:29:09;14.26;73.94
13796;SHT30;40911;51.552;9.874;2022-07-10T01:31:31;14.22;73.89
13796;SHT30;40911;51.552;9.874;2022-07-10T01:33:54;14.27;73.88
13796;SHT30;40911;51.552;9.874;2022-07-10T01:36:16;14.20;73.97
13796;SHT30;40911;51.552;9.874;2022-07-10T01:38:39;14.18;74.18
13796;SHT30;40911;51.552;9.874;2022-07-10T01:41:01;14.13;73.83
13796;SHT30;40911;51.552;9.874;2022-07-10T01:43:22;14.01;73.81
13796;SHT30;40911;51.552;9.874;2022-07-10T01:45:44;14.05;74.00
13796;SHT30;40911;51.552;9.874;2022-07-10T01:48:05;13.99;73.93
13796;SHT30;40911;51.552;9.874;2022-07-10T01:50:27;14.01;74.08
13796;SHT30;40911;51.552;9.874;2022-07-10T01:52:49;13.97;74.08
13796;SHT30;40911;51.552;9.874;2022-07-10T01:55:12;14.05;74.21
13796;SHT30;40911;51.552;9.874;2022-07-10T01:57:33;13.98;74.46
13796;SHT30;40911;51.552;9.874;2022-07-10T01:59:55;13.94;74.76
13796;SHT30;40911;51.552;9.874;2022-07-10T02:02:17;13.92;75.01
13796;SHT30;40911;51.552;9.874;2022-07-10T02:04:39;13.88;75.28
13796;SHT30;40911;51.552;9.874;2022-07-10T02:07:03;14.05;75.07
13796;SHT30;40911;51.552;9.874;2022-07-10T02:09:24;14.04;75.03
13796;SHT30;40911;51.552;9.874;2022-07-10T02:11:47;13.97;75.38
13796;SHT30;40911;51.552;9.874;2022-07-10T02:14:09;13.95;75.48
13796;SHT30;40911;51.552;9.874;2022-07-10T02:16:31;13.91;75.07
13796;SHT30;40911;51.552;9.874;2022-07-10T02:18:52;13.84;74.55
13796;SHT30;40911;51.552;9.874;2022-07-10T02:21:14;13.81;73.37
13796;SHT30;40911;51.552;9.874;2022-07-10T02:23:35;13.82;73.57
13796;SHT30;40911;51.552;9.874;2022-07-10T02:25:59;13.87;73.67
13796;SHT30;40911;51.552;9.874;2022-07-10T02:28:22;13.87;73.77
13796;SHT30;40911;51.552;9.874;2022-07-10T02:30:44;13.75;73.81
13796;SHT30;40911;51.552;9.874;2022-07-10T02:33:05;13.73;73.97
13796;SHT30;40911;51.552;9.874;2022-07-10T02:35:27;13.77;73.93
13796;SHT30;40911;51.552;9.874;2022-07-10T02:37:48;13.74;74.15
13796;SHT30;40911;51.552;9.874;2022-07-10T02:40:10;13.67;74.30
13796;SHT30;40911;51.552;9.874;2022-07-10T02:42:31;13.58;74.76
13796;SHT30;40911;51.552;9.874;2022-07-10T02:44:54;13.74;74.64
13796;SHT30;40911;51.552;9.874;2022-07-10T02:47:16;13.55;75.21
13796;SHT30;40911;51.552;9.874;2022-07-10T02:49:38;13.57;75.25
13796;SHT30;40911;51.552;9.874;2022-07-10T02:51:59;13.62;75.49
13796;SHT30;40911;51.552;9.874;2022-07-10T02:54:21;13.48;76.44
13796;SHT30;40911;51.552;9.874;2022-07-10T02:56:42;13.51;76.75
13796;SHT30;40911;51.552;9.874;2022-07-10T02:59:04;13.32;78.13
13796;SHT30;40911;51.552;9.874;2022-07-10T03:01:27;13.22;79.15
13796;SHT30;40911;51.552;9.874;2022-07-10T03:03:49;13.24;79.26
13796;SHT30;40911;51.552;9.874;2022-07-10T03:06:11;13.37;79.01
13796;SHT30;40911;51.552;9.874;2022-07-10T03:08:32;13.33;79.60
13796;SHT30;40911;51.552;9.874;2022-07-10T03:10:54;13.40;79.54
13796;SHT30;40911;51.552;9.874;2022-07-10T03:13:15;13.26;80.04
13796;SHT30;40911;51.552;9.874;2022-07-10T03:15:37;13.19;80.36
13796;SHT30;40911;51.552;9.874;2022-07-10T03:18:00;13.12;80.78
13796;SHT30;40911;51.552;9.874;2022-07-10T03:20:22;13.22;80.64
13796;SHT30;40911;51.552;9.874;2022-07-10T03:22:44;13.22;80.76
13796;SHT30;40911;51.552;9.874;2022-07-10T03:25:06;13.12;81.29
13796;SHT30;40911;51.552;9.874;2022-07-10T03:27:28;13.09;81.47
13796;SHT30;40911;51.552;9.874;2022-07-10T03:29:49;13.22;81.18
13796;SHT30;40911;51.552;9.874;2022-07-10T03:32:11;13.11;81.68
13796;SHT30;40911;51.552;9.874;2022-07-10T03:34:34;13.08;81.92
13796;SHT30;40911;51.552;9.874;2022-07-10T03:36:56;12.98;82.36
13796;SHT30;40911;51.552;9.874;2022-07-10T03:39:17;12.98;82.54
13796;SHT30;40911;51.552;9.874;2022-07-10T03:41:39;13.05;82.48
13796;SHT30;40911;51.552;9.874;2022-07-10T03:44:00;12.99;82.62
13796;SHT30;40911;51.552;9.874;2022-07-10T03:46:22;13.29;81.77
13796;SHT30;40911;51.552;9.874;2022-07-10T03:48:43;13.18;82.20
13796;SHT30;40911;51.552;9.874;2022-07-10T03:51:06;13.20;82.20
13796;SHT30;40911;51.552;9.874;2022-07-10T03:53:28;13.18;82.22
13796;SHT30;40911;51.552;9.874;2022-07-10T03:55:50;12.98;83.09
13796;SHT30;40911;51.552;9.874;2022-07-10T03:58:11;13.02;83.03
13796;SHT30;40911;51.552;9.874;2022-07-10T04:00:32;13.08;82.73
13796;SHT30;40911;51.552;9.874;2022-07-10T04:02:55;13.02;83.05
13796;SHT30;40911;51.552;9.874;2022-07-10T04:05:17;13.03;83.14
13796;SHT30;40911;51.552;9.874;2022-07-10T04:07:41;13.27;82.39
13796;SHT30;40911;51.552;9.874;2022-07-10T04:10:03;13.15;82.92
13796;SHT30;40911;51.552;9.874;2022-07-10T04:12:25;13.13;82.90
13796;SHT30;40911;51.552;9.874;2022-07-10T04:14:47;13.06;83.27
13796;SHT30;40911;51.552;9.874;2022-07-10T04:17:11;13.15;82.83
13796;SHT30;40911;51.552;9.874;2022-07-10T04:19:33;13.22;82.83
13796;SHT30;40911;51.552;9.874;2022-07-10T04:21:54;13.26;82.67
13796;SHT30;40911;51.552;9.874;2022-07-10T04:24:17;13.22;83.10
13796;SHT30;40911;51.552;9.874;2022-07-10T04:26:39;13.12;83.34
13796;SHT30;40911;51.552;9.874;2022-07-10T04:29:00;13.09;83.83
13796;SHT30;40911;51.552;9.874;2022-07-10T04:31:22;13.12;83.22
13796;SHT30;40911;51.552;9.874;2022-07-10T04:33:44;13.18;83.28
13796;SHT30;40911;51.552;9.874;2022-07-10T04:36:06;13.18;83.18
13796;SHT30;40911;51.552;9.874;2022-07-10T04:38:27;13.22;83.06
13796;SHT30;40911;51.552;9.874;2022-07-10T04:40:50;13.09;83.63
13796;SHT30;40911;51.552;9.874;2022-07-10T04:43:12;13.16;83.36
13796;SHT30;40911;51.552;9.874;2022-07-10T04:45:33;13.39;82.78
13796;SHT30;40911;51.552;9.874;2022-07-10T04:47:55;13.26;83.08
13796;SHT30;40911;51.552;9.874;2022-07-10T04:50:17;13.34;82.83
13796;SHT30;40911;51.552;9.874;2022-07-10T04:52:38;13.24;83.06
13796;SHT30;40911;51.552;9.874;2022-07-10T04:55:00;13.26;83.19
13796;SHT30;40911;51.552;9.874;2022-07-10T04:57:23;13.30;83.01
13796;SHT30;40911;51.552;9.874;2022-07-10T04:59:45;13.43;82.78
13796;SHT30;40911;51.552;9.874;2022-07-10T05:02:06;13.29;83.02
13796;SHT30;40911;51.552;9.874;2022-07-10T05:04:28;13.46;82.94
13796;SHT30;40911;51.552;9.874;2022-07-10T05:06:50;13.34;82.94
13796;SHT30;40911;51.552;9.874;2022-07-10T05:09:11;13.41;82.73
13796;SHT30;40911;51.552;9.874;2022-07-10T05:11:33;13.37;82.87
13796;SHT30;40911;51.552;9.874;2022-07-10T05:13:56;13.51;82.55
13796;SHT30;40911;51.552;9.874;2022-07-10T05:16:18;13.51;82.41
13796;SHT30;40911;51.552;9.874;2022-07-10T05:18:40;13.58;82.20
13796;SHT30;40911;51.552;9.874;2022-07-10T05:21:01;13.46;82.37
13796;SHT30;40911;51.552;9.874;2022-07-10T05:23:23;13.47;82.49
13796;SHT30;40911;51.552;9.874;2022-07-10T05:25:45;13.50;82.94
13796;SHT30;40911;51.552;9.874;2022-07-10T05:28:06;13.50;83.19
13796;SHT30;40911;51.552;9.874;2022-07-10T05:30:29;13.62;82.26
13796;SHT30;40911;51.552;9.874;2022-07-10T05:32:51;13.58;82.45
13796;SHT30;40911;51.552;9.874;2022-07-10T05:35:13;13.47;82.93
13796;SHT30;40911;51.552;9.874;2022-07-10T05:37:35;13.70;82.84
13796;SHT30;40911;51.552;9.874;2022-07-10T05:39:57;13.57;82.94
13796;SHT30;40911;51.552;9.874;2022-07-10T05:42:18;13.74;82.83
13796;SHT30;40911;51.552;9.874;2022-07-10T05:44:40;13.65;82.29
13796;SHT30;40911;51.552;9.874;2022-07-10T05:47:03;13.80;81.86
13796;SHT30;40911;51.552;9.874;2022-07-10T05:49:25;13.62;82.06
13796;SHT30;40911;51.552;9.874;2022-07-10T05:51:47;13.65;82.21
13796;SHT30;40911;51.552;9.874;2022-07-10T05:54:08;13.85;82.14
13796;SHT30;40911;51.552;9.874;2022-07-10T05:56:30;13.73;82.63
13796;SHT30;40911;51.552;9.874;2022-07-10T05:58:51;13.78;82.37
13796;SHT30;40911;51.552;9.874;2022-07-10T06:01:15;13.87;82.35
13796;SHT30;40911;51.552;9.874;2022-07-10T06:03:38;14.06;81.93
13796;SHT30;40911;51.552;9.874;2022-07-10T06:06:00;14.05;81.83
13796;SHT30;40911;51.552;9.874;2022-07-10T06:08:21;13.94;81.45
13796;SHT30;40911;51.552;9.874;2022-07-10T06:10:43;14.06;81.06
13796;SHT30;40911;51.552;9.874;2022-07-10T06:13:05;13.94;81.19
13796;SHT30;40911;51.552;9.874;2022-07-10T06:15:26;14.13;81.60
13796;SHT30;40911;51.552;9.874;2022-07-10T06:17:48;14.39;80.67
13796;SHT30;40911;51.552;9.874;2022-07-10T06:20:11;14.30;80.55
13796;SHT30;40911;51.552;9.874;2022-07-10T06:22:33;14.33;80.49
13796;SHT30;40911;51.552;9.874;2022-07-10T06:24:55;14.22;80.45
13796;SHT30;40911;51.552;9.874;2022-07-10T06:27:16;14.34;80.40
13796;SHT30;40911;51.552;9.874;2022-07-10T06:29:38;14.26;80.28
13796;SHT30;40911;51.552;9.874;2022-07-10T06:31:59;14.15;80.47
13796;SHT30;40911;51.552;9.874;2022-07-10T06:34:21;14.29;80.23
13796;SHT30;40911;51.552;9.874;2022-07-10T06:36:44;14.25;80.40
13796;SHT30;40911;51.552;9.874;2022-07-10T06:39:06;14.15;80.29
13796;SHT30;40911;51.552;9.874;2022-07-10T06:41:30;14.23;79.78
13796;SHT30;40911;51.552;9.874;2022-07-10T06:43:52;14.52;79.09
13796;SHT30;40911;51.552;9.874;2022-07-10T06:46:13;14.88;78.10
13796;SHT30;40911;51.552;9.874;2022-07-10T06:48:35;14.77;78.65
13796;SHT30;40911;51.552;9.874;2022-07-10T06:50:59;14.64;77.54
13796;SHT30;40911;51.552;9.874;2022-07-10T06:53:22;14.71;76.91
13796;SHT30;40911;51.552;9.874;2022-07-10T06:55:46;14.91;77.20
13796;SHT30;40911;51.552;9.874;2022-07-10T06:58:08;15.04;76.99
13796;SHT30;40911;51.552;9.874;2022-07-10T07:00:30;15.16;76.62
13796;SHT30;40911;51.552;9.874;2022-07-10T07:02:51;15.32;76.04
13796;SHT30;40911;51.552;9.874;2022-07-10T07:05:26;16.21;74.48
13796;SHT30;40911;51.552;9.874;2022-07-10T07:07:49;16.25;74.72
13796;SHT30;40911;51.552;9.874;2022-07-10T07:10:12;15.38;73.70
13796;SHT30;40911;51.552;9.874;2022-07-10T07:12:34;15.81;73.43
13796;SHT30;40911;51.552;9.874;2022-07-10T07:14:55;15.73;72.86
13796;SHT30;40911;51.552;9.874;2022-07-10T07:17:17;15.84;72.15
13796;SHT30;40911;51.552;9.874;2022-07-10T07:19:43;15.80;70.23
13796;SHT30;40911;51.552;9.874;2022-07-10T07:22:23;15.99;69.96
13796;SHT30;40911;51.552;9.874;2022-07-10T07:25:03;16.53;67.24
13796;SHT30;40911;51.552;9.874;2022-07-10T07:27:27;16.42;68.30
13796;SHT30;40911;51.552;9.874;2022-07-10T07:29:48;16.88;67.18
13796;SHT30;40911;51.552;9.874;2022-07-10T07:32:10;16.71;68.17
13796;SHT30;40911;51.552;9.874;2022-07-10T07:34:32;17.05;68.02
13796;SHT30;40911;51.552;9.874;2022-07-10T07:36:53;16.81;68.13
13796;SHT30;40911;51.552;9.874;2022-07-10T07:39:17;16.56;67.70
13796;SHT30;40911;51.552;9.874;2022-07-10T07:41:42;16.24;68.33
13796;SHT30;40911;51.552;9.874;2022-07-10T07:44:05;16.40;68.64
13796;SHT30;40911;51.552;9.874;2022-07-10T07:46:27;16.70;68.68
13796;SHT30;40911;51.552;9.874;2022-07-10T07:48:48;16.64;69.15
13796;SHT30;40911;51.552;9.874;2022-07-10T07:51:14;16.81;69.86
13796;SHT30;40911;51.552;9.874;2022-07-10T07:53:35;17.43;68.69
13796;SHT30;40911;51.552;9.874;2022-07-10T07:55:57;17.07;67.97
13796;SHT30;40911;51.552;9.874;2022-07-10T07:58:19;17.03;69.58
13796;SHT30;40911;51.552;9.874;2022-07-10T08:00:42;16.85;68.72
13796;SHT30;40911;51.552;9.874;2022-07-10T08:03:04;16.22;70.09
13796;SHT30;40911;51.552;9.874;2022-07-10T08:05:25;16.66;70.21
13796;SHT30;40911;51.552;9.874;2022-07-10T08:07:49;17.21;67.43
13796;SHT30;40911;51.552;9.874;2022-07-10T08:10:14;17.73;67.67
13796;SHT30;40911;51.552;9.874;2022-07-10T08:12:36;17.42;67.63
13796;SHT30;40911;51.552;9.874;2022-07-10T08:14:59;16.91;69.18
13796;SHT30;40911;51.552;9.874;2022-07-10T08:17:22;16.80;68.63
13796;SHT30;40911;51.552;9.874;2022-07-10T08:19:43;17.38;67.05
13796;SHT30;40911;51.552;9.874;2022-07-10T08:22:05;17.04;67.88
13796;SHT30;40911;51.552;9.874;2022-07-10T08:24:26;18.69;65.80
13796;SHT30;40911;51.552;9.874;2022-07-10T08:26:48;17.93;65.38
13796;SHT30;40911;51.552;9.874;2022-07-10T08:29:11;17.56;66.38
13796;SHT30;40911;51.552;9.874;2022-07-10T08:31:32;17.42;66.58
13796;SHT30;40911;51.552;9.874;2022-07-10T08:33:56;16.53;67.32
13796;SHT30;40911;51.552;9.874;2022-07-10T08:36:18;16.50;67.45
13796;SHT30;40911;51.552;9.874;2022-07-10T08:38:39;17.00;66.84
13796;SHT30;40911;51.552;9.874;2022-07-10T08:41:01;17.71;65.48
13796;SHT30;40911;51.552;9.874;2022-07-10T08:43:26;18.28;63.70
13796;SHT30;40911;51.552;9.874;2022-07-10T08:45:47;18.30;64.68
13796;SHT30;40911;51.552;9.874;2022-07-10T08:48:12;18.01;64.88
13796;SHT30;40911;51.552;9.874;2022-07-10T08:50:38;17.56;65.39
13796;SHT30;40911;51.552;9.874;2022-07-10T08:53:08;17.74;64.39
13796;SHT30;40911;51.552;9.874;2022-07-10T08:55:30;18.39;63.56
13796;SHT30;40911;51.552;9.874;2022-07-10T08:57:51;18.41;62.09
13796;SHT30;40911;51.552;9.874;2022-07-10T09:00:13;19.35;61.68
13796;SHT30;40911;51.552;9.874;2022-07-10T09:02:35;19.08;61.70
13796;SHT30;40911;51.552;9.874;2022-07-10T09:04:56;19.49;61.54
13796;SHT30;40911;51.552;9.874;2022-07-10T09:07:20;18.79;61.26
13796;SHT30;40911;51.552;9.874;2022-07-10T09:09:52;17.86;64.44
13796;SHT30;40911;51.552;9.874;2022-07-10T09:12:15;17.84;64.70
13796;SHT30;40911;51.552;9.874;2022-07-10T09:14:36;17.65;65.07
13796;SHT30;40911;51.552;9.874;2022-07-10T09:16:58;17.53;64.72
13796;SHT30;40911;51.552;9.874;2022-07-10T09:19:21;17.70;63.96
13796;SHT30;40911;51.552;9.874;2022-07-10T09:21:43;18.52;63.31
13796;SHT30;40911;51.552;9.874;2022-07-10T09:24:07;19.03;61.38
13796;SHT30;40911;51.552;9.874;2022-07-10T09:26:29;18.96;61.65
13796;SHT30;40911;51.552;9.874;2022-07-10T09:29:05;18.93;63.01
13796;SHT30;40911;51.552;9.874;2022-07-10T09:31:27;19.49;61.88
13796;SHT30;40911;51.552;9.874;2022-07-10T09:33:50;20.20;60.12
13796;SHT30;40911;51.552;9.874;2022-07-10T09:36:11;19.77;60.05
13796;SHT30;40911;51.552;9.874;2022-07-10T09:38:54;19.36;60.59
13796;SHT30;40911;51.552;9.874;2022-07-10T09:41:20;19.20;61.89
13796;SHT30;40911;51.552;9.874;2022-07-10T09:43:46;18.84;63.23
13796;SHT30;40911;51.552;9.874;2022-07-10T09:46:08;19.62;61.60
13796;SHT30;40911;51.552;9.874;2022-07-10T09:48:30;20.31;60.37
13796;SHT30;40911;51.552;9.874;2022-07-10T09:50:51;19.65;61.40
13796;SHT30;40911;51.552;9.874;2022-07-10T09:53:13;19.32;61.10
13796;SHT30;40911;51.552;9.874;2022-07-10T09:55:36;18.49;62.00
13796;SHT30;40911;51.552;9.874;2022-07-10T09:58:01;18.30;63.11
13796;SHT30;40911;51.552;9.874;2022-07-10T10:00:25;18.48;64.00
13796;SHT30;40911;51.552;9.874;2022-07-10T10:02:47;18.67;63.87
13796;SHT30;40911;51.552;9.874;2022-07-10T10:05:09;18.44;63.79
13796;SHT30;40911;51.552;9.874;2022-07-10T10:07:33;18.26;64.63
13796;SHT30;40911;51.552;9.874;2022-07-10T10:09:59;18.77;64.12
13796;SHT30;40911;51.552;9.874;2022-07-10T10:12:27;20.16;61.65
13796;SHT30;40911;51.552;9.874;2022-07-10T10:14:54;19.56;60.53
13796;SHT30;40911;51.552;9.874;2022-07-10T10:17:19;20.28;59.57
13796;SHT30;40911;51.552;9.874;2022-07-10T10:19:41;18.90;61.95
13796;SHT30;40911;51.552;9.874;2022-07-10T10:22:29;18.77;63.15
13796;SHT30;40911;51.552;9.874;2022-07-10T10:24:52;18.79;63.81
13796;SHT30;40911;51.552;9.874;2022-07-10T10:27:15;18.46;65.08
13796;SHT30;40911;51.552;9.874;2022-07-10T10:29:37;17.97;66.16
13796;SHT30;40911;51.552;9.874;2022-07-10T10:32:00;18.08;65.98
13796;SHT30;40911;51.552;9.874;2022-07-10T10:34:38;18.17;65.72
13796;SHT30;40911;51.552;9.874;2022-07-10T10:37:00;17.70;66.53
13796;SHT30;40911;51.552;9.874;2022-07-10T10:39:22;18.42;65.21
13796;SHT30;40911;51.552;9.874;2022-07-10T10:41:46;19.41;63.99
13796;SHT30;40911;51.552;9.874;2022-07-10T10:44:26;19.83;63.19
13796;SHT30;40911;51.552;9.874;2022-07-10T10:46:57;18.98;64.03
13796;SHT30;40911;51.552;9.874;2022-07-10T10:49:23;19.24;63.85
13796;SHT30;40911;51.552;9.874;2022-07-10T10:51:58;19.77;62.52
13796;SHT30;40911;51.552;9.874;2022-07-10T10:54:20;19.99;62.17
13796;SHT30;40911;51.552;9.874;2022-07-10T10:56:42;19.34;64.28
13796;SHT30;40911;51.552;9.874;2022-07-10T10:59:03;18.48;65.48
13796;SHT30;40911;51.552;9.874;2022-07-10T11:01:26;18.93;63.74
13796;SHT30;40911;51.552;9.874;2022-07-10T11:06:42;19.77;63.45
13796;SHT30;40911;51.552;9.874;2022-07-10T11:09:21;19.56;62.29
13796;SHT30;40911;51.552;9.874;2022-07-10T11:11:43;19.38;62.71
13796;SHT30;40911;51.552;9.874;2022-07-10T11:14:05;19.21;63.07
13796;SHT30;40911;51.552;9.874;2022-07-10T11:16:28;19.79;62.49
13796;SHT30;40911;51.552;9.874;2022-07-10T11:18:52;19.90;61.67
13796;SHT30;40911;51.552;9.874;2022-07-10T11:21:22;19.79;60.08
13796;SHT30;40911;51.552;9.874;2022-07-10T11:23:56;19.69;58.19
13796;SHT30;40911;51.552;9.874;2022-07-10T11:26:24;19.52;58.67
13796;SHT30;40911;51.552;9.874;2022-07-10T11:28:50;19.52;60.01
13796;SHT30;40911;51.552;9.874;2022-07-10T11:31:12;18.84;60.40
13796;SHT30;40911;51.552;9.874;2022-07-10T11:33:38;19.45;60.26
13796;SHT30;40911;51.552;9.874;2022-07-10T11:36:09;19.49;60.64
13796;SHT30;40911;51.552;9.874;2022-07-10T11:38:33;19.91;59.64
13796;SHT30;40911;51.552;9.874;2022-07-10T11:40:57;19.24;61.52
13796;SHT30;40911;51.552;9.874;2022-07-10T11:43:18;18.87;64.19
13796;SHT30;40911;51.552;9.874;2022-07-10T11:45:44;19.12;62.69
13796;SHT30;40911;51.552;9.874;2022-07-10T11:48:05;19.00;63.23
13796;SHT30;40911;51.552;9.874;2022-07-10T11:50:35;19.86;62.19
13796;SHT30;40911;51.552;9.874;2022-07-10T11:52:57;19.99;60.63
13796;SHT30;40911;51.552;9.874;2022-07-10T11:55:21;20.31;60.37
13796;SHT30;40911;51.552;9.874;2022-07-10T11:57:45;19.82;61.32
13796;SHT30;40911;51.552;9.874;2022-07-10T12:00:20;19.65;61.69
13796;SHT30;40911;51.552;9.874;2022-07-10T12:02:43;19.80;61.09
13796;SHT30;40911;51.552;9.874;2022-07-10T12:05:05;19.83;61.10
13796;SHT30;40911;51.552;9.874;2022-07-10T12:07:28;19.89;59.36
13796;SHT30;40911;51.552;9.874;2022-07-10T12:09:52;19.49;59.67
13796;SHT30;40911;51.552;9.874;2022-07-10T12:12:14;19.63;60.24
13796;SHT30;40911;51.552;9.874;2022-07-10T12:14:37;19.49;60.45
13796;SHT30;40911;51.552;9.874;2022-07-10T12:17:00;19.96;60.55
13796;SHT30;40911;51.552;9.874;2022-07-10T12:19:23;20.92;59.77
13796;SHT30;40911;51.552;9.874;2022-07-10T12:21:46;20.90;59.34
13796;SHT30;40911;51.552;9.874;2022-07-10T12:24:09;20.37;59.14
13796;SHT30;40911;51.552;9.874;2022-07-10T12:26:34;20.18;59.42
13796;SHT30;40911;51.552;9.874;2022-07-10T12:28:57;19.70;59.93
13796;SHT30;40911;51.552;9.874;2022-07-10T12:31:26;19.96;60.29
13796;SHT30;40911;51.552;9.874;2022-07-10T12:33:52;20.04;60.57
13796;SHT30;40911;51.552;9.874;2022-07-10T12:36:17;19.72;61.67
13796;SHT30;40911;51.552;9.874;2022-07-10T12:38:52;18.86;62.83
13796;SHT30;40911;51.552;9.874;2022-07-10T12:41:14;18.83;63.23
13796;SHT30;40911;51.552;9.874;2022-07-10T12:43:42;18.97;63.00
13796;SHT30;40911;51.552;9.874;2022-07-10T12:46:11;19.04;63.25
13796;SHT30;40911;51.552;9.874;2022-07-10T12:48:35;18.52;63.83
13796;SHT30;40911;51.552;9.874;2022-07-10T12:51:19;18.59;63.35
13796;SHT30;40911;51.552;9.874;2022-07-10T12:53:44;18.91;63.45
13796;SHT30;40911;51.552;9.874;2022-07-10T12:56:06;18.51;64.03
13796;SHT30;40911;51.552;9.874;2022-07-10T12:58:29;18.65;64.13
13796;SHT30;40911;51.552;9.874;2022-07-10T13:00:51;19.01;63.71
13796;SHT30;40911;51.552;9.874;2022-07-10T13:03:17;19.27;63.54
13796;SHT30;40911;51.552;9.874;2022-07-10T13:05:44;19.14;63.03
13796;SHT30;40911;51.552;9.874;2022-07-10T13:08:12;18.57;63.47
13796;SHT30;40911;51.552;9.874;2022-07-10T13:10:39;18.79;63.76
13796;SHT30;40911;51.552;9.874;2022-07-10T13:13:01;18.55;64.06
13796;SHT30;40911;51.552;9.874;2022-07-10T13:15:23;18.98;64.20
13796;SHT30;40911;51.552;9.874;2022-07-10T13:17:44;19.35;62.64
13796;SHT30;40911;51.552;9.874;2022-07-10T13:20:06;18.84;63.66
13796;SHT30;40911;51.552;9.874;2022-07-10T13:22:30;18.24;65.19
13796;SHT30;40911;51.552;9.874;2022-07-10T13:24:51;18.38;65.06
13796;SHT30;40911;51.552;9.874;2022-07-10T13:27:13;18.62;65.00
13796;SHT30;40911;51.552;9.874;2022-07-10T13:29:34;18.60;65.44
13796;SHT30;40911;51.552;9.874;2022-07-10T13:31:56;18.00;66.80
13796;SHT30;40911;51.552;9.874;2022-07-10T13:34:18;18.11;66.57
13796;SHT30;40911;51.552;9.874;2022-07-10T13:36:39;17.93;67.08
13796;SHT30;40911;51.552;9.874;2022-07-10T13:39:02;17.83;67.95
13796;SHT30;40911;51.552;9.874;2022-07-10T13:41:24;17.89;67.52
13796;SHT30;40911;51.552;9.874;2022-07-10T13:43:45;18.11;67.61
13796;SHT30;40911;51.552;9.874;2022-07-10T13:46:07;17.86;68.22
13796;SHT30;40911;51.552;9.874;2022-07-10T13:48:29;17.45;69.59
13796;SHT30;40911;51.552;9.874;2022-07-10T13:50:51;17.91;69.07
13796;SHT30;40911;51.552;9.874;2022-07-10T13:53:13;17.60;71.11
13796;SHT30;40911;51.552;9.874;2022-07-10T13:55:36;17.12;73.24
13796;SHT30;40911;51.552;9.874;2022-07-10T13:57:58;16.91;74.01
13796;SHT30;40911;51.552;9.874;2022-07-10T14:00:20;17.26;73.46
13796;SHT30;40911;51.552;9.874;2022-07-10T14:02:41;17.04;74.14
13796;SHT30;40911;51.552;9.874;2022-07-10T14:05:04;17.65;73.24
13796;SHT30;40911;51.552;9.874;2022-07-10T14:07:26;17.11;73.88
13796;SHT30;40911;51.552;9.874;2022-07-10T14:09:47;17.66;72.70
13796;SHT30;40911;51.552;9.874;2022-07-10T14:12:10;17.45;72.85
13796;SHT30;40911;51.552;9.874;2022-07-10T14:14:32;17.47;73.41
13796;SHT30;40911;51.552;9.874;2022-07-10T14:16:53;17.24;73.76
13796;SHT30;40911;51.552;9.874;2022-07-10T14:19:15;17.10;74.60
13796;SHT30;40911;51.552;9.874;2022-07-10T14:21:36;17.50;74.20
13796;SHT30;40911;51.552;9.874;2022-07-10T14:23:58;17.57;74.57
13796;SHT30;40911;51.552;9.874;2022-07-10T14:26:20;17.26;75.27
13796;SHT30;40911;51.552;9.874;2022-07-10T14:28:44;17.11;76.35
13796;SHT30;40911;51.552;9.874;2022-07-10T14:31:06;17.46;76.15
13796;SHT30;40911;51.552;9.874;2022-07-10T14:33:29;16.94;77.64
13796;SHT30;40911;51.552;9.874;2022-07-10T14:35:50;16.68;77.94
13796;SHT30;40911;51.552;9.874;2022-07-10T14:38:12;16.76;78.73
13796;SHT30;40911;51.552;9.874;2022-07-10T14:40:34;16.98;78.35
13796;SHT30;40911;51.552;9.874;2022-07-10T14:42:55;16.90;78.14
13796;SHT30;40911;51.552;9.874;2022-07-10T14:45:20;17.21;77.30
13796;SHT30;40911;51.552;9.874;2022-07-10T14:47:41;17.66;76.63
13796;SHT30;40911;51.552;9.874;2022-07-10T14:50:03;17.21;76.26
13796;SHT30;40911;51.552;9.874;2022-07-10T14:52:25;17.15;77.10
13796;SHT30;40911;51.552;9.874;2022-07-10T14:54:48;17.22;76.55
13796;SHT30;40911;51.552;9.874;2022-07-10T14:57:11;17.66;75.90
13796;SHT30;40911;51.552;9.874;2022-07-10T14:59:33;17.33;76.97
13796;SHT30;40911;51.552;9.874;2022-07-10T15:01:56;17.36;76.97
13796;SHT30;40911;51.552;9.874;2022-07-10T15:04:18;17.33;76.67
13796;SHT30;40911;51.552;9.874;2022-07-10T15:06:41;17.59;76.01
13796;SHT30;40911;51.552;9.874;2022-07-10T15:09:02;18.07;75.11